createdAt,value
2023-03-20T00:01:36.555Z,26.30
2023-03-20T00:06:43.978Z,26.80
2023-03-20T00:11:53.552Z,25.60
2023-03-20T00:17:01.158Z,27.10
2023-03-20T00:22:10.226Z,23.20
2023-03-20T00:27:19.228Z,22.10
2023-03-20T00:32:27.128Z,21.30
2023-03-20T00:37:34.858Z,26.10
2023-03-20T00:42:43.612Z,21.00
2023-03-20T00:47:53.274Z,23.70
2023-03-20T00:53:01.790Z,21.40
2023-03-20T00:58:12.921Z,22.90
2023-03-20T01:03:23.542Z,24.00
2023-03-20T01:08:30.965Z,23.80
2023-03-20T01:13:40.012Z,21.10
2023-03-20T01:18:47.724Z,22.80
2023-03-20T01:23:55.307Z,22.20
2023-03-20T01:29:02.936Z,24.80
2023-03-20T01:34:12.597Z,23.40
2023-03-20T01:39:22.169Z,27.30
2023-03-20T01:44:32.869Z,28.10
2023-03-20T01:50:15.043Z,27.60
2023-03-20T01:55:25.245Z,28.10
2023-03-20T02:00:33.877Z,23.90
2023-03-20T02:05:44.264Z,25.60
2023-03-20T02:10:52.151Z,27.40
2023-03-20T02:16:07.718Z,21.70
2023-03-20T02:21:51.600Z,22.10
2023-03-20T02:27:11.366Z,22.40
2023-03-20T02:32:52.826Z,23.90
2023-03-20T02:38:39.640Z,24.10
2023-03-20T02:43:54.729Z,27.60
2023-03-20T02:49:08.522Z,28.50
2023-03-20T02:54:25.702Z,29.70
2023-03-20T02:59:41.004Z,21.70
2023-03-20T03:04:54.863Z,30.80
2023-03-20T03:10:07.413Z,24.70
2023-03-20T03:15:18.935Z,29.50
2023-03-20T03:20:30.475Z,25.50
2023-03-20T03:25:41.456Z,22.30
2023-03-20T03:30:50.191Z,25.40
2023-03-20T03:36:03.383Z,29.60
2023-03-20T03:41:25.583Z,26.70
2023-03-20T03:46:39.726Z,27.70
2023-03-20T03:51:52.383Z,32.20
2023-03-20T03:57:04.178Z,31.20
2023-03-20T04:02:13.113Z,32.20
2023-03-20T04:07:28.239Z,31.80
2023-03-20T04:12:39.730Z,32.00
2023-03-20T04:17:48.280Z,31.20
2023-03-20T04:22:56.329Z,32.90
2023-03-20T04:28:04.219Z,32.50
2023-03-20T04:33:11.854Z,32.00
2023-03-20T04:38:20.606Z,29.80
2023-03-20T04:43:28.684Z,31.80
2023-03-20T04:48:36.583Z,32.40
2023-03-20T04:53:44.097Z,32.80
2023-03-20T04:58:51.543Z,33.10
2023-03-20T05:04:01.329Z,32.30
2023-03-20T05:09:09.468Z,29.40
2023-03-20T05:14:17.002Z,31.40
2023-03-20T05:19:25.223Z,27.90
2023-03-20T05:24:32.945Z,25.40
2023-03-20T05:29:40.224Z,33.70
2023-03-20T05:34:47.651Z,38.00
2023-03-20T05:39:55.213Z,33.00
2023-03-20T05:45:02.545Z,38.10
2023-03-20T05:50:11.895Z,37.90
2023-03-20T05:55:19.783Z,35.80
2023-03-20T06:00:28.727Z,37.90
2023-03-20T06:05:37.277Z,29.90
2023-03-20T06:10:45.080Z,29.20
2023-03-20T06:15:52.838Z,30.50
2023-03-20T06:21:02.245Z,37.10
2023-03-20T06:26:10.265Z,31.90
2023-03-20T06:31:17.903Z,23.80
2023-03-20T06:36:25.807Z,28.70
2023-03-20T06:41:34.889Z,25.60
2023-03-20T06:46:42.798Z,24.80
2023-03-20T06:51:51.895Z,21.10
2023-03-20T06:56:59.840Z,21.40
2023-03-20T07:02:08.645Z,22.50
2023-03-20T07:07:16.224Z,20.40
2023-03-20T07:12:28.908Z,21.80
2023-03-20T07:17:36.290Z,20.50
2023-03-20T07:22:44.312Z,22.60
2023-03-20T07:27:51.577Z,22.50
2023-03-20T07:32:58.934Z,20.70
2023-03-20T07:44:14.704Z,17.70
2023-03-20T07:49:23.023Z,18.40
2023-03-20T07:54:30.553Z,15.80
2023-03-20T07:59:38.189Z,15.60
2023-03-20T08:04:46.723Z,15.20
2023-03-20T08:09:54.551Z,15.20
2023-03-20T08:15:02.344Z,13.20
2023-03-20T08:20:12.662Z,18.00
2023-03-20T08:25:20.479Z,15.70
2023-03-20T08:30:28.764Z,14.10
2023-03-20T08:35:37.002Z,16.40
2023-03-20T08:40:45.559Z,16.30
2023-03-20T08:45:53.714Z,17.20
2023-03-20T08:51:01.612Z,18.40
2023-03-20T08:56:11.564Z,18.10
2023-03-20T09:01:19.882Z,19.00
2023-03-20T09:06:27.324Z,17.10
2023-03-20T09:11:35.080Z,19.00
2023-03-20T09:16:43.024Z,17.00
2023-03-20T09:21:50.705Z,19.70
2023-03-20T09:26:58.986Z,16.70
2023-03-20T09:32:06.845Z,14.10
2023-03-20T09:37:14.789Z,18.20
2023-03-20T09:42:34.223Z,20.80
2023-03-20T09:47:51.500Z,16.20
2023-03-20T10:02:58.472Z,18.70
2023-03-20T10:08:06.594Z,15.00
2023-03-20T10:13:45.091Z,17.00
2023-03-20T10:18:58.039Z,14.10
2023-03-20T10:24:04.854Z,15.20
2023-03-20T10:29:23.139Z,16.60
2023-03-20T10:34:53.870Z,16.60
2023-03-20T10:40:14.517Z,18.20
2023-03-20T10:45:31.497Z,17.10
2023-03-20T10:50:42.147Z,15.60
2023-03-20T10:55:48.073Z,16.10
2023-03-20T11:00:57.102Z,19.30
2023-03-20T11:06:09.853Z,16.20
2023-03-20T11:11:21.231Z,18.10
2023-03-20T11:16:31.135Z,17.00
2023-03-20T11:21:46.565Z,15.80
2023-03-20T11:26:52.860Z,18.40
2023-03-20T11:32:07.411Z,16.30
2023-03-20T11:37:25.629Z,17.40
2023-03-20T11:42:31.466Z,18.20
2023-03-20T11:47:37.908Z,16.40
2023-03-20T11:52:44.093Z,18.70
2023-03-20T11:57:49.350Z,17.30
2023-03-20T12:02:54.060Z,16.90
2023-03-20T12:08:03.262Z,17.30
2023-03-20T12:13:14.802Z,16.50
2023-03-20T12:18:25.987Z,16.90
2023-03-20T12:23:35.305Z,14.70
2023-03-20T12:28:47.493Z,11.40
2023-03-20T12:33:57.183Z,9.60
2023-03-20T12:39:04.977Z,11.30
2023-03-20T12:44:26.704Z,12.10
2023-03-20T12:49:43.276Z,10.70
2023-03-20T12:55:06.002Z,10.40
2023-03-20T13:00:24.370Z,8.80
2023-03-20T13:05:37.346Z,8.70
2023-03-20T13:10:54.309Z,8.00
2023-03-20T13:16:09.958Z,8.60
2023-03-20T13:21:22.307Z,15.30
2023-03-20T13:26:37.043Z,16.10
2023-03-20T13:31:51.542Z,13.40
2023-03-20T13:37:22.369Z,12.20
2023-03-20T13:42:35.251Z,12.40
2023-03-20T13:47:40.426Z,16.70
2023-03-20T13:52:52.646Z,18.10
2023-03-20T13:58:15.514Z,38.20
2023-03-20T14:03:27.965Z,28.90
2023-03-20T14:08:36.824Z,18.90
2023-03-20T14:13:45.240Z,17.00
2023-03-20T14:19:03.919Z,16.70
2023-03-20T14:24:15.776Z,16.50
2023-03-20T14:29:35.102Z,15.90
2023-03-20T14:34:48.994Z,17.10
2023-03-20T14:44:31.981Z,19.70
2023-03-20T14:49:56.387Z,18.20
2023-03-20T14:55:32.067Z,22.70
2023-03-20T15:00:48.383Z,20.40
2023-03-20T15:06:00.693Z,20.80
2023-03-20T15:11:12.149Z,18.90
2023-03-20T15:16:27.408Z,20.70
2023-03-20T15:21:38.566Z,16.20
2023-03-20T15:26:46.287Z,21.40
2023-03-20T15:32:12.826Z,23.40
2023-03-20T15:37:25.164Z,23.70
2023-03-20T15:42:34.025Z,24.00
2023-03-20T15:47:43.750Z,21.00
2023-03-20T15:52:55.006Z,22.70
2023-03-20T15:58:04.388Z,32.40
2023-03-20T16:03:17.390Z,17.70
2023-03-20T16:08:27.354Z,23.50
2023-03-20T16:13:39.135Z,25.80
2023-03-20T16:18:49.110Z,26.10
2023-03-20T16:23:59.381Z,23.10
2023-03-20T16:29:08.437Z,25.70
2023-03-20T16:34:23.186Z,27.00
2023-03-20T16:39:32.635Z,27.50
2023-03-20T16:44:42.816Z,24.70
2023-03-20T16:50:12.253Z,24.00
2023-03-20T16:55:25.535Z,27.70
2023-03-20T17:00:42.913Z,23.90
2023-03-20T17:05:57.973Z,26.90
2023-03-20T17:11:12.038Z,24.60
2023-03-20T17:16:23.156Z,27.10
2023-03-20T17:21:31.766Z,26.50
2023-03-20T17:26:39.708Z,27.60
2023-03-20T17:31:47.626Z,26.70
2023-03-20T17:36:55.407Z,26.40
2023-03-20T17:42:02.735Z,29.30
2023-03-20T17:47:15.949Z,25.30
2023-03-20T17:52:26.318Z,30.90
2023-03-20T17:57:36.073Z,32.90
2023-03-20T18:02:43.785Z,27.80
2023-03-20T18:07:51.674Z,30.60
2023-03-20T18:12:59.722Z,27.00
2023-03-20T18:18:09.949Z,32.70
2023-03-20T18:23:18.433Z,33.30
2023-03-20T18:28:26.611Z,33.20
2023-03-20T18:33:34.579Z,34.40
2023-03-20T18:38:43.009Z,35.40
2023-03-20T18:43:51.942Z,33.30
2023-03-20T18:48:59.848Z,37.50
2023-03-20T18:54:07.967Z,32.90
2023-03-20T18:59:16.761Z,37.60
2023-03-20T19:04:27.029Z,38.40
2023-03-20T19:09:35.048Z,37.80
2023-03-20T19:14:43.546Z,38.10
2023-03-20T19:19:51.095Z,39.90
2023-03-20T19:24:58.845Z,39.00
2023-03-20T19:30:07.547Z,37.30
2023-03-20T19:35:50.312Z,40.50
2023-03-20T19:40:48.322Z,34.80
2023-03-20T19:45:58.804Z,41.20
2023-03-20T19:51:07.623Z,37.40
2023-03-20T19:56:17.820Z,36.70
2023-03-20T20:01:26.292Z,28.50
2023-03-20T20:06:35.176Z,31.70
2023-03-20T20:11:43.190Z,38.80
2023-03-20T20:16:52.859Z,40.60
2023-03-20T20:22:20.001Z,28.10
2023-03-20T20:27:31.731Z,41.50
2023-03-20T20:32:41.111Z,43.40
2023-03-20T20:45:18.413Z,45.10
2023-03-20T20:50:29.728Z,44.40
2023-03-20T20:55:37.545Z,42.00
2023-03-20T21:00:52.594Z,43.90
2023-03-20T21:06:07.410Z,47.60
2023-03-20T21:11:17.352Z,49.20
2023-03-20T21:16:25.724Z,49.10
2023-03-20T21:21:35.337Z,53.00
2023-03-20T21:26:43.576Z,50.20
2023-03-20T21:31:51.210Z,59.70
2023-03-20T21:37:00.214Z,50.50
2023-03-20T21:42:10.074Z,55.20
2023-03-20T21:53:45.925Z,54.30
2023-03-20T22:04:31.890Z,62.90
2023-03-20T22:09:52.096Z,68.50
2023-03-20T22:20:53.365Z,74.10
2023-03-20T22:31:48.063Z,61.10
2023-03-20T22:47:29.550Z,91.50
2023-03-20T22:52:48.499Z,38.50
2023-03-20T22:58:06.799Z,56.60
2023-03-20T23:03:29.509Z,53.50
2023-03-20T23:08:49.344Z,59.90
2023-03-20T23:14:01.009Z,48.70
2023-03-20T23:19:08.548Z,55.70
2023-03-20T23:24:17.189Z,56.20
2023-03-20T23:29:25.565Z,58.40
2023-03-20T23:34:34.235Z,58.70
2023-03-20T23:39:42.536Z,59.40
2023-03-20T23:44:56.299Z,58.60
2023-03-20T23:50:09.674Z,50.30
2023-03-20T23:55:21.791Z,58.30
